sensor_id;sensor_type;location;lat;lon;timestamp;P1;durP1;ratioP1;P2;durP2;ratioP2
53666;SDS011;39568;51.026;5.468;2023-04-03T00:00:38;19.90;;;12.50;;
53666;SDS011;39568;51.026;5.468;2023-04-03T00:03:05;19.73;;;11.90;;
53666;SDS011;39568;51.026;5.468;2023-04-03T00:05:32;16.23;;;12.15;;
53666;SDS011;39568;51.026;5.468;2023-04-03T00:07:59;13.40;;;10.82;;
53666;SDS011;39568;51.026;5.468;2023-04-03T00:10:27;15.73;;;11.93;;
53666;SDS011;39568;51.026;5.468;2023-04-03T00:12:53;13.77;;;11.77;;
53666;SDS011;39568;51.026;5.468;2023-04-03T00:15:21;17.77;;;12.55;;
53666;SDS011;39568;51.026;5.468;2023-04-03T00:17:52;22.67;;;11.60;;
53666;SDS011;39568;51.026;5.468;2023-04-03T00:20:20;14.60;;;10.05;;
53666;SDS011;39568;51.026;5.468;2023-04-03T00:22:47;12.13;;;10.90;;
53666;SDS011;39568;51.026;5.468;2023-04-03T00:25:13;17.20;;;12.02;;
53666;SDS011;39568;51.026;5.468;2023-04-03T00:27:40;14.07;;;11.32;;
53666;SDS011;39568;51.026;5.468;2023-04-03T00:30:12;17.25;;;13.40;;
53666;SDS011;39568;51.026;5.468;2023-04-03T00:32:47;20.38;;;13.25;;
53666;SDS011;39568;51.026;5.468;2023-04-03T00:35:16;20.25;;;12.10;;
53666;SDS011;39568;51.026;5.468;2023-04-03T00:37:45;15.13;;;12.10;;
53666;SDS011;39568;51.026;5.468;2023-04-03T00:40:13;17.42;;;12.68;;
53666;SDS011;39568;51.026;5.468;2023-04-03T00:42:42;19.10;;;12.52;;
53666;SDS011;39568;51.026;5.468;2023-04-03T00:45:27;17.67;;;13.60;;
53666;SDS011;39568;51.026;5.468;2023-04-03T00:48:02;23.13;;;13.02;;
53666;SDS011;39568;51.026;5.468;2023-04-03T00:50:35;20.13;;;13.60;;
53666;SDS011;39568;51.026;5.468;2023-04-03T00:53:05;23.95;;;13.13;;
53666;SDS011;39568;51.026;5.468;2023-04-03T00:55:40;27.80;;;14.88;;
53666;SDS011;39568;51.026;5.468;2023-04-03T00:58:12;19.95;;;14.55;;
53666;SDS011;39568;51.026;5.468;2023-04-03T01:00:41;19.75;;;14.23;;
53666;SDS011;39568;51.026;5.468;2023-04-03T01:03:13;16.67;;;14.55;;
53666;SDS011;39568;51.026;5.468;2023-04-03T01:05:41;27.83;;;16.60;;
53666;SDS011;39568;51.026;5.468;2023-04-03T01:08:13;22.92;;;16.20;;
53666;SDS011;39568;51.026;5.468;2023-04-03T01:10:40;30.90;;;15.50;;
53666;SDS011;39568;51.026;5.468;2023-04-03T01:13:17;23.70;;;14.50;;
53666;SDS011;39568;51.026;5.468;2023-04-03T01:15:48;19.02;;;15.35;;
53666;SDS011;39568;51.026;5.468;2023-04-03T01:18:15;24.92;;;16.30;;
53666;SDS011;39568;51.026;5.468;2023-04-03T01:23:49;22.42;;;16.33;;
53666;SDS011;39568;51.026;5.468;2023-04-03T01:26:25;27.30;;;16.48;;
53666;SDS011;39568;51.026;5.468;2023-04-03T01:28:53;28.27;;;15.25;;
53666;SDS011;39568;51.026;5.468;2023-04-03T01:31:27;20.48;;;15.88;;
53666;SDS011;39568;51.026;5.468;2023-04-03T01:33:57;19.38;;;15.02;;
53666;SDS011;39568;51.026;5.468;2023-04-03T01:36:25;25.08;;;16.38;;
53666;SDS011;39568;51.026;5.468;2023-04-03T01:38:53;26.85;;;16.35;;
53666;SDS011;39568;51.026;5.468;2023-04-03T01:41:21;27.58;;;16.10;;
53666;SDS011;39568;51.026;5.468;2023-04-03T01:43:48;25.75;;;16.67;;
53666;SDS011;39568;51.026;5.468;2023-04-03T01:46:15;23.77;;;15.95;;
53666;SDS011;39568;51.026;5.468;2023-04-03T01:48:49;25.05;;;15.32;;
53666;SDS011;39568;51.026;5.468;2023-04-03T01:51:17;17.95;;;14.98;;
53666;SDS011;39568;51.026;5.468;2023-04-03T01:53:49;19.50;;;14.90;;
53666;SDS011;39568;51.026;5.468;2023-04-03T01:56:20;24.70;;;15.38;;
53666;SDS011;39568;51.026;5.468;2023-04-03T01:58:46;28.42;;;17.13;;
53666;SDS011;39568;51.026;5.468;2023-04-03T02:01:13;24.65;;;16.02;;
53666;SDS011;39568;51.026;5.468;2023-04-03T02:03:40;21.98;;;16.98;;
53666;SDS011;39568;51.026;5.468;2023-04-03T02:06:08;32.85;;;17.33;;
53666;SDS011;39568;51.026;5.468;2023-04-03T02:08:37;31.15;;;18.85;;
53666;SDS011;39568;51.026;5.468;2023-04-03T02:11:04;25.67;;;18.50;;
53666;SDS011;39568;51.026;5.468;2023-04-03T02:13:31;29.33;;;18.27;;
53666;SDS011;39568;51.026;5.468;2023-04-03T02:15:57;29.33;;;18.60;;
53666;SDS011;39568;51.026;5.468;2023-04-03T02:18:24;28.65;;;18.38;;
53666;SDS011;39568;51.026;5.468;2023-04-03T02:20:52;26.27;;;19.60;;
53666;SDS011;39568;51.026;5.468;2023-04-03T02:23:20;37.10;;;20.05;;
53666;SDS011;39568;51.026;5.468;2023-04-03T02:25:48;29.95;;;17.55;;
53666;SDS011;39568;51.026;5.468;2023-04-03T02:28:15;26.95;;;18.95;;
53666;SDS011;39568;51.026;5.468;2023-04-03T02:30:42;32.25;;;19.17;;
53666;SDS011;39568;51.026;5.468;2023-04-03T02:33:09;29.85;;;18.67;;
53666;SDS011;39568;51.026;5.468;2023-04-03T02:35:36;27.05;;;19.80;;
53666;SDS011;39568;51.026;5.468;2023-04-03T02:38:02;31.80;;;18.95;;
53666;SDS011;39568;51.026;5.468;2023-04-03T02:40:30;26.75;;;19.30;;
53666;SDS011;39568;51.026;5.468;2023-04-03T02:43:00;28.98;;;19.73;;
53666;SDS011;39568;51.026;5.468;2023-04-03T02:45:27;33.42;;;19.15;;
53666;SDS011;39568;51.026;5.468;2023-04-03T02:47:54;31.77;;;19.67;;
53666;SDS011;39568;51.026;5.468;2023-04-03T02:50:22;24.33;;;19.30;;
53666;SDS011;39568;51.026;5.468;2023-04-03T02:52:48;34.15;;;19.52;;
53666;SDS011;39568;51.026;5.468;2023-04-03T02:55:15;35.85;;;20.98;;
53666;SDS011;39568;51.026;5.468;2023-04-03T02:57:42;38.70;;;20.23;;
53666;SDS011;39568;51.026;5.468;2023-04-03T03:00:11;36.03;;;21.25;;
53666;SDS011;39568;51.026;5.468;2023-04-03T03:02:40;38.38;;;21.35;;
53666;SDS011;39568;51.026;5.468;2023-04-03T03:05:10;31.20;;;20.88;;
53666;SDS011;39568;51.026;5.468;2023-04-03T03:07:37;29.67;;;20.52;;
53666;SDS011;39568;51.026;5.468;2023-04-03T03:10:04;41.45;;;20.70;;
53666;SDS011;39568;51.026;5.468;2023-04-03T03:12:42;24.85;;;18.30;;
53666;SDS011;39568;51.026;5.468;2023-04-03T03:15:20;32.63;;;18.98;;
53666;SDS011;39568;51.026;5.468;2023-04-03T03:17:51;28.48;;;18.63;;
53666;SDS011;39568;51.026;5.468;2023-04-03T03:20:18;26.27;;;17.83;;
53666;SDS011;39568;51.026;5.468;2023-04-03T03:22:45;26.75;;;17.65;;
53666;SDS011;39568;51.026;5.468;2023-04-03T03:25:12;24.52;;;16.52;;
53666;SDS011;39568;51.026;5.468;2023-04-03T03:27:39;26.58;;;16.98;;
53666;SDS011;39568;51.026;5.468;2023-04-03T03:30:06;34.03;;;19.10;;
53666;SDS011;39568;51.026;5.468;2023-04-03T03:32:35;25.20;;;17.65;;
53666;SDS011;39568;51.026;5.468;2023-04-03T03:35:02;21.20;;;17.45;;
53666;SDS011;39568;51.026;5.468;2023-04-03T03:37:29;25.25;;;18.35;;
53666;SDS011;39568;51.026;5.468;2023-04-03T03:39:55;25.92;;;18.10;;
53666;SDS011;39568;51.026;5.468;2023-04-03T03:42:31;28.33;;;20.05;;
53666;SDS011;39568;51.026;5.468;2023-04-03T03:44:58;25.75;;;17.90;;
53666;SDS011;39568;51.026;5.468;2023-04-03T03:47:28;27.07;;;19.07;;
53666;SDS011;39568;51.026;5.468;2023-04-03T03:49:57;35.60;;;20.33;;
53666;SDS011;39568;51.026;5.468;2023-04-03T03:52:24;25.02;;;19.33;;
53666;SDS011;39568;51.026;5.468;2023-04-03T03:54:55;28.50;;;19.20;;
53666;SDS011;39568;51.026;5.468;2023-04-03T03:57:27;35.25;;;17.58;;
53666;SDS011;39568;51.026;5.468;2023-04-03T03:59:55;29.98;;;19.23;;
53666;SDS011;39568;51.026;5.468;2023-04-03T04:02:24;28.20;;;19.52;;
53666;SDS011;39568;51.026;5.468;2023-04-03T04:04:51;34.88;;;24.33;;
53666;SDS011;39568;51.026;5.468;2023-04-03T04:07:19;35.55;;;22.85;;
53666;SDS011;39568;51.026;5.468;2023-04-03T04:09:46;33.70;;;23.75;;
53666;SDS011;39568;51.026;5.468;2023-04-03T04:12:13;38.10;;;23.70;;
53666;SDS011;39568;51.026;5.468;2023-04-03T04:14:43;45.30;;;22.17;;
53666;SDS011;39568;51.026;5.468;2023-04-03T04:17:11;36.58;;;24.40;;
53666;SDS011;39568;51.026;5.468;2023-04-03T04:19:38;37.15;;;26.08;;
53666;SDS011;39568;51.026;5.468;2023-04-03T04:22:05;41.83;;;24.98;;
53666;SDS011;39568;51.026;5.468;2023-04-03T04:24:39;41.50;;;24.15;;
53666;SDS011;39568;51.026;5.468;2023-04-03T04:27:06;48.92;;;27.75;;
53666;SDS011;39568;51.026;5.468;2023-04-03T04:29:33;45.90;;;30.35;;
53666;SDS011;39568;51.026;5.468;2023-04-03T04:32:02;43.55;;;30.00;;
53666;SDS011;39568;51.026;5.468;2023-04-03T04:34:29;58.30;;;33.15;;
53666;SDS011;39568;51.026;5.468;2023-04-03T04:36:56;58.45;;;31.73;;
53666;SDS011;39568;51.026;5.468;2023-04-03T04:39:23;61.72;;;36.03;;
53666;SDS011;39568;51.026;5.468;2023-04-03T04:41:51;55.60;;;33.95;;
53666;SDS011;39568;51.026;5.468;2023-04-03T04:44:17;58.50;;;33.10;;
53666;SDS011;39568;51.026;5.468;2023-04-03T04:46:45;52.60;;;35.03;;
53666;SDS011;39568;51.026;5.468;2023-04-03T04:49:11;62.58;;;38.17;;
53666;SDS011;39568;51.026;5.468;2023-04-03T04:51:39;68.40;;;39.17;;
53666;SDS011;39568;51.026;5.468;2023-04-03T04:54:06;66.90;;;37.97;;
53666;SDS011;39568;51.026;5.468;2023-04-03T04:56:33;65.32;;;42.03;;
53666;SDS011;39568;51.026;5.468;2023-04-03T04:59:01;67.85;;;40.70;;
53666;SDS011;39568;51.026;5.468;2023-04-03T05:01:30;67.63;;;38.33;;
53666;SDS011;39568;51.026;5.468;2023-04-03T05:04:00;70.60;;;39.72;;
53666;SDS011;39568;51.026;5.468;2023-04-03T05:06:28;73.55;;;42.47;;
53666;SDS011;39568;51.026;5.468;2023-04-03T05:08:57;57.03;;;38.03;;
53666;SDS011;39568;51.026;5.468;2023-04-03T05:11:25;62.40;;;37.97;;
53666;SDS011;39568;51.026;5.468;2023-04-03T05:13:52;67.68;;;38.92;;
53666;SDS011;39568;51.026;5.468;2023-04-03T05:16:21;60.95;;;39.55;;
53666;SDS011;39568;51.026;5.468;2023-04-03T05:18:48;55.08;;;36.13;;
53666;SDS011;39568;51.026;5.468;2023-04-03T05:21:14;55.05;;;36.97;;
53666;SDS011;39568;51.026;5.468;2023-04-03T05:23:43;59.83;;;37.03;;
53666;SDS011;39568;51.026;5.468;2023-04-03T05:26:10;65.57;;;37.63;;
53666;SDS011;39568;51.026;5.468;2023-04-03T05:28:37;61.88;;;38.08;;
53666;SDS011;39568;51.026;5.468;2023-04-03T05:31:04;61.75;;;38.80;;
53666;SDS011;39568;51.026;5.468;2023-04-03T05:33:32;63.63;;;39.30;;
53666;SDS011;39568;51.026;5.468;2023-04-03T05:36:01;53.22;;;34.97;;
53666;SDS011;39568;51.026;5.468;2023-04-03T05:38:29;53.70;;;35.38;;
53666;SDS011;39568;51.026;5.468;2023-04-03T05:40:56;45.83;;;33.60;;
53666;SDS011;39568;51.026;5.468;2023-04-03T05:43:23;46.75;;;29.98;;
53666;SDS011;39568;51.026;5.468;2023-04-03T05:45:50;45.30;;;29.98;;
53666;SDS011;39568;51.026;5.468;2023-04-03T05:48:17;46.45;;;29.45;;
53666;SDS011;39568;51.026;5.468;2023-04-03T05:50:47;45.45;;;26.48;;
53666;SDS011;39568;51.026;5.468;2023-04-03T05:53:19;49.22;;;26.75;;
53666;SDS011;39568;51.026;5.468;2023-04-03T05:55:48;31.10;;;23.23;;
53666;SDS011;39568;51.026;5.468;2023-04-03T05:58:15;40.63;;;22.15;;
53666;SDS011;39568;51.026;5.468;2023-04-03T06:00:42;33.05;;;22.50;;
53666;SDS011;39568;51.026;5.468;2023-04-03T06:03:14;26.75;;;19.15;;
53666;SDS011;39568;51.026;5.468;2023-04-03T06:05:43;34.95;;;18.25;;
53666;SDS011;39568;51.026;5.468;2023-04-03T06:08:12;29.98;;;17.40;;
53666;SDS011;39568;51.026;5.468;2023-04-03T06:10:39;25.35;;;18.30;;
53666;SDS011;39568;51.026;5.468;2023-04-03T06:13:11;30.02;;;15.48;;
53666;SDS011;39568;51.026;5.468;2023-04-03T06:15:38;28.08;;;15.63;;
53666;SDS011;39568;51.026;5.468;2023-04-03T06:18:05;21.05;;;14.52;;
53666;SDS011;39568;51.026;5.468;2023-04-03T06:20:33;19.65;;;14.45;;
53666;SDS011;39568;51.026;5.468;2023-04-03T06:23:00;25.08;;;11.88;;
53666;SDS011;39568;51.026;5.468;2023-04-03T06:25:29;23.50;;;12.82;;
53666;SDS011;39568;51.026;5.468;2023-04-03T06:27:56;31.27;;;14.07;;
53666;SDS011;39568;51.026;5.468;2023-04-03T06:30:23;22.80;;;11.55;;
53666;SDS011;39568;51.026;5.468;2023-04-03T06:32:52;13.02;;;10.32;;
53666;SDS011;39568;51.026;5.468;2023-04-03T06:35:24;19.08;;;12.25;;
53666;SDS011;39568;51.026;5.468;2023-04-03T06:37:52;20.27;;;10.80;;
53666;SDS011;39568;51.026;5.468;2023-04-03T06:40:19;17.73;;;11.32;;
53666;SDS011;39568;51.026;5.468;2023-04-03T06:42:49;20.90;;;10.27;;
53666;SDS011;39568;51.026;5.468;2023-04-03T06:45:16;12.52;;;8.80;;
53666;SDS011;39568;51.026;5.468;2023-04-03T06:47:47;12.33;;;8.80;;
53666;SDS011;39568;51.026;5.468;2023-04-03T06:50:14;13.85;;;9.85;;
53666;SDS011;39568;51.026;5.468;2023-04-03T06:52:43;16.38;;;8.85;;
53666;SDS011;39568;51.026;5.468;2023-04-03T06:55:11;13.20;;;8.27;;
53666;SDS011;39568;51.026;5.468;2023-04-03T06:57:39;10.70;;;8.07;;
53666;SDS011;39568;51.026;5.468;2023-04-03T07:00:08;10.85;;;7.53;;
53666;SDS011;39568;51.026;5.468;2023-04-03T07:02:35;12.75;;;7.25;;
53666;SDS011;39568;51.026;5.468;2023-04-03T07:05:03;14.10;;;8.00;;
53666;SDS011;39568;51.026;5.468;2023-04-03T07:07:30;11.30;;;7.07;;
53666;SDS011;39568;51.026;5.468;2023-04-03T07:10:00;12.45;;;5.72;;
53666;SDS011;39568;51.026;5.468;2023-04-03T07:12:30;8.77;;;5.82;;
53666;SDS011;39568;51.026;5.468;2023-04-03T07:14:57;16.50;;;6.75;;
53666;SDS011;39568;51.026;5.468;2023-04-03T07:17:26;9.73;;;6.47;;
53666;SDS011;39568;51.026;5.468;2023-04-03T07:19:53;8.30;;;7.05;;
53666;SDS011;39568;51.026;5.468;2023-04-03T07:22:25;12.75;;;6.00;;
53666;SDS011;39568;51.026;5.468;2023-04-03T07:24:52;10.02;;;4.68;;
53666;SDS011;39568;51.026;5.468;2023-04-03T07:27:18;10.80;;;4.93;;
53666;SDS011;39568;51.026;5.468;2023-04-03T07:29:45;11.10;;;4.82;;
53666;SDS011;39568;51.026;5.468;2023-04-03T07:32:15;17.52;;;5.28;;
53666;SDS011;39568;51.026;5.468;2023-04-03T07:34:44;15.40;;;5.03;;
53666;SDS011;39568;51.026;5.468;2023-04-03T07:37:11;7.30;;;3.72;;
53666;SDS011;39568;51.026;5.468;2023-04-03T07:39:43;10.77;;;4.70;;
53666;SDS011;39568;51.026;5.468;2023-04-03T07:42:11;8.48;;;4.28;;
53666;SDS011;39568;51.026;5.468;2023-04-03T07:44:38;10.18;;;4.32;;
53666;SDS011;39568;51.026;5.468;2023-04-03T07:47:12;4.30;;;3.92;;
53666;SDS011;39568;51.026;5.468;2023-04-03T07:49:41;6.93;;;4.15;;
53666;SDS011;39568;51.026;5.468;2023-04-03T07:52:10;8.52;;;4.35;;
53666;SDS011;39568;51.026;5.468;2023-04-03T07:54:36;5.80;;;3.72;;
53666;SDS011;39568;51.026;5.468;2023-04-03T07:57:03;5.03;;;3.80;;
53666;SDS011;39568;51.026;5.468;2023-04-03T07:59:31;10.80;;;3.83;;
53666;SDS011;39568;51.026;5.468;2023-04-03T08:02:00;9.27;;;4.10;;
53666;SDS011;39568;51.026;5.468;2023-04-03T08:04:29;11.13;;;4.00;;
53666;SDS011;39568;51.026;5.468;2023-04-03T08:06:58;5.00;;;3.60;;
53666;SDS011;39568;51.026;5.468;2023-04-03T08:09:26;9.60;;;3.72;;
53666;SDS011;39568;51.026;5.468;2023-04-03T08:11:53;3.47;;;2.85;;
53666;SDS011;39568;51.026;5.468;2023-04-03T08:14:30;8.63;;;3.15;;
53666;SDS011;39568;51.026;5.468;2023-04-03T08:16:59;4.75;;;3.42;;
53666;SDS011;39568;51.026;5.468;2023-04-03T08:19:30;7.38;;;3.33;;
53666;SDS011;39568;51.026;5.468;2023-04-03T08:21:57;6.65;;;3.42;;
53666;SDS011;39568;51.026;5.468;2023-04-03T08:24:30;7.60;;;3.72;;
53666;SDS011;39568;51.026;5.468;2023-04-03T08:26:57;10.70;;;3.88;;
53666;SDS011;39568;51.026;5.468;2023-04-03T08:29:24;5.57;;;3.05;;
53666;SDS011;39568;51.026;5.468;2023-04-03T08:31:51;3.70;;;3.13;;
53666;SDS011;39568;51.026;5.468;2023-04-03T08:34:19;5.00;;;2.50;;
53666;SDS011;39568;51.026;5.468;2023-04-03T08:36:46;4.72;;;2.60;;
53666;SDS011;39568;51.026;5.468;2023-04-03T08:39:13;10.63;;;3.03;;
53666;SDS011;39568;51.026;5.468;2023-04-03T08:41:42;3.28;;;2.50;;
53666;SDS011;39568;51.026;5.468;2023-04-03T08:44:14;8.65;;;2.25;;
53666;SDS011;39568;51.026;5.468;2023-04-03T08:47:02;3.20;;;1.90;;
53666;SDS011;39568;51.026;5.468;2023-04-03T08:49:35;4.53;;;2.95;;
53666;SDS011;39568;51.026;5.468;2023-04-03T08:52:09;4.30;;;1.92;;
53666;SDS011;39568;51.026;5.468;2023-04-03T08:54:41;5.82;;;1.80;;
53666;SDS011;39568;51.026;5.468;2023-04-03T08:57:20;6.78;;;2.50;;
53666;SDS011;39568;51.026;5.468;2023-04-03T08:59:55;5.70;;;2.22;;
53666;SDS011;39568;51.026;5.468;2023-04-03T09:02:26;8.45;;;2.45;;
53666;SDS011;39568;51.026;5.468;2023-04-03T09:04:57;5.43;;;2.35;;
53666;SDS011;39568;51.026;5.468;2023-04-03T09:07:28;3.92;;;2.25;;
53666;SDS011;39568;51.026;5.468;2023-04-03T09:10:02;6.47;;;2.38;;
53666;SDS011;39568;51.026;5.468;2023-04-03T09:12:33;8.70;;;2.45;;
53666;SDS011;39568;51.026;5.468;2023-04-03T09:15:05;2.92;;;1.70;;
53666;SDS011;39568;51.026;5.468;2023-04-03T09:17:41;9.85;;;2.40;;
53666;SDS011;39568;51.026;5.468;2023-04-03T09:20:18;6.03;;;2.28;;
53666;SDS011;39568;51.026;5.468;2023-04-03T09:22:51;6.57;;;2.35;;
53666;SDS011;39568;51.026;5.468;2023-04-03T09:25:20;3.10;;;2.53;;
53666;SDS011;39568;51.026;5.468;2023-04-03T09:27:49;5.28;;;2.45;;
53666;SDS011;39568;51.026;5.468;2023-04-03T09:30:18;2.22;;;1.88;;
53666;SDS011;39568;51.026;5.468;2023-04-03T09:32:48;4.15;;;2.45;;
53666;SDS011;39568;51.026;5.468;2023-04-03T09:35:18;4.80;;;2.03;;
53666;SDS011;39568;51.026;5.468;2023-04-03T09:37:49;6.90;;;2.25;;
53666;SDS011;39568;51.026;5.468;2023-04-03T09:40:31;3.40;;;1.98;;
53666;SDS011;39568;51.026;5.468;2023-04-03T09:45:54;3.80;;;1.40;;
53666;SDS011;39568;51.026;5.468;2023-04-03T09:48:25;3.63;;;1.50;;
53666;SDS011;39568;51.026;5.468;2023-04-03T09:50:58;4.05;;;2.00;;
53666;SDS011;39568;51.026;5.468;2023-04-03T09:53:29;6.97;;;1.67;;
53666;SDS011;39568;51.026;5.468;2023-04-03T09:55:59;8.13;;;1.90;;
53666;SDS011;39568;51.026;5.468;2023-04-03T09:58:30;1.90;;;1.30;;
53666;SDS011;39568;51.026;5.468;2023-04-03T10:01:00;4.85;;;1.60;;
53666;SDS011;39568;51.026;5.468;2023-04-03T10:03:29;6.82;;;1.45;;
53666;SDS011;39568;51.026;5.468;2023-04-03T10:05:57;3.83;;;1.67;;
53666;SDS011;39568;51.026;5.468;2023-04-03T10:08:27;1.80;;;1.38;;
53666;SDS011;39568;51.026;5.468;2023-04-03T10:11:06;4.88;;;1.83;;
53666;SDS011;39568;51.026;5.468;2023-04-03T10:13:38;2.55;;;1.20;;
53666;SDS011;39568;51.026;5.468;2023-04-03T10:16:17;3.95;;;1.27;;
53666;SDS011;39568;51.026;5.468;2023-04-03T10:18:53;2.97;;;1.90;;
53666;SDS011;39568;51.026;5.468;2023-04-03T10:21:29;5.65;;;2.15;;
53666;SDS011;39568;51.026;5.468;2023-04-03T10:24:08;2.72;;;1.73;;
53666;SDS011;39568;51.026;5.468;2023-04-03T10:26:42;4.78;;;1.45;;
53666;SDS011;39568;51.026;5.468;2023-04-03T10:29:21;3.45;;;1.35;;
53666;SDS011;39568;51.026;5.468;2023-04-03T10:32:01;3.40;;;0.85;;
53666;SDS011;39568;51.026;5.468;2023-04-03T10:34:37;1.25;;;0.77;;
53666;SDS011;39568;51.026;5.468;2023-04-03T10:37:12;2.53;;;0.65;;
53666;SDS011;39568;51.026;5.468;2023-04-03T10:39:50;1.27;;;0.43;;
53666;SDS011;39568;51.026;5.468;2023-04-03T10:42:22;5.15;;;0.88;;
53666;SDS011;39568;51.026;5.468;2023-04-03T10:47:51;1.40;;;0.80;;
53666;SDS011;39568;51.026;5.468;2023-04-03T10:50:39;0.90;;;0.75;;
53666;SDS011;39568;51.026;5.468;2023-04-03T10:53:13;2.65;;;0.98;;
53666;SDS011;39568;51.026;5.468;2023-04-03T10:55:49;2.20;;;0.98;;
53666;SDS011;39568;51.026;5.468;2023-04-03T10:58:28;1.65;;;0.88;;
53666;SDS011;39568;51.026;5.468;2023-04-03T11:01:01;1.15;;;0.80;;
53666;SDS011;39568;51.026;5.468;2023-04-03T11:03:38;1.38;;;0.80;;
53666;SDS011;39568;51.026;5.468;2023-04-03T11:06:08;1.42;;;1.00;;
53666;SDS011;39568;51.026;5.468;2023-04-03T11:08:41;2.72;;;0.63;;
53666;SDS011;39568;51.026;5.468;2023-04-03T11:11:13;1.23;;;0.95;;
53666;SDS011;39568;51.026;5.468;2023-04-03T11:13:46;0.68;;;0.60;;
53666;SDS011;39568;51.026;5.468;2023-04-03T11:16:19;0.98;;;0.65;;
53666;SDS011;39568;51.026;5.468;2023-04-03T11:18:52;1.50;;;0.70;;
53666;SDS011;39568;51.026;5.468;2023-04-03T11:21:24;1.23;;;0.77;;
53666;SDS011;39568;51.026;5.468;2023-04-03T11:23:57;4.25;;;0.90;;
53666;SDS011;39568;51.026;5.468;2023-04-03T11:26:27;1.60;;;0.75;;
53666;SDS011;39568;51.026;5.468;2023-04-03T11:28:58;0.82;;;0.82;;
53666;SDS011;39568;51.026;5.468;2023-04-03T11:34:21;0.82;;;0.77;;
53666;SDS011;39568;51.026;5.468;2023-04-03T11:36:57;6.53;;;1.10;;
53666;SDS011;39568;51.026;5.468;2023-04-03T11:39:26;1.50;;;0.60;;
53666;SDS011;39568;51.026;5.468;2023-04-03T11:44:43;1.42;;;0.90;;
53666;SDS011;39568;51.026;5.468;2023-04-03T11:47:12;4.53;;;0.90;;
53666;SDS011;39568;51.026;5.468;2023-04-03T11:50:20;2.70;;;1.73;;
53666;SDS011;39568;51.026;5.468;2023-04-03T11:52:59;2.22;;;0.98;;
53666;SDS011;39568;51.026;5.468;2023-04-03T11:58:27;1.48;;;1.20;;
53666;SDS011;39568;51.026;5.468;2023-04-03T12:01:05;3.20;;;1.27;;
53666;SDS011;39568;51.026;5.468;2023-04-03T12:12:42;4.32;;;1.13;;
53666;SDS011;39568;51.026;5.468;2023-04-03T12:21:10;1.58;;;1.23;;
53666;SDS011;39568;51.026;5.468;2023-04-03T12:26:40;2.45;;;1.00;;
53666;SDS011;39568;51.026;5.468;2023-04-03T12:29:13;3.00;;;1.20;;
53666;SDS011;39568;51.026;5.468;2023-04-03T12:31:54;3.20;;;1.10;;
53666;SDS011;39568;51.026;5.468;2023-04-03T12:34:48;1.25;;;1.13;;
53666;SDS011;39568;51.026;5.468;2023-04-03T12:37:27;2.65;;;1.75;;
53666;SDS011;39568;51.026;5.468;2023-04-03T12:40:07;1.67;;;1.00;;
53666;SDS011;39568;51.026;5.468;2023-04-03T12:45:47;4.82;;;1.38;;
53666;SDS011;39568;51.026;5.468;2023-04-03T12:48:22;2.97;;;1.00;;
53666;SDS011;39568;51.026;5.468;2023-04-03T12:50:51;2.20;;;1.50;;
53666;SDS011;39568;51.026;5.468;2023-04-03T12:53:19;2.92;;;1.42;;
53666;SDS011;39568;51.026;5.468;2023-04-03T12:55:53;2.60;;;1.25;;
53666;SDS011;39568;51.026;5.468;2023-04-03T12:58:24;2.67;;;1.52;;
53666;SDS011;39568;51.026;5.468;2023-04-03T13:01:00;1.40;;;1.30;;
53666;SDS011;39568;51.026;5.468;2023-04-03T13:03:27;2.00;;;1.40;;
53666;SDS011;39568;51.026;5.468;2023-04-03T13:06:06;5.35;;;1.88;;
53666;SDS011;39568;51.026;5.468;2023-04-03T13:08:33;1.88;;;1.40;;
53666;SDS011;39568;51.026;5.468;2023-04-03T13:11:01;3.20;;;1.65;;
53666;SDS011;39568;51.026;5.468;2023-04-03T13:13:33;1.30;;;1.20;;
53666;SDS011;39568;51.026;5.468;2023-04-03T13:16:01;1.52;;;1.42;;
53666;SDS011;39568;51.026;5.468;2023-04-03T13:18:35;6.68;;;1.23;;
53666;SDS011;39568;51.026;5.468;2023-04-03T13:21:03;3.42;;;1.60;;
53666;SDS011;39568;51.026;5.468;2023-04-03T13:23:34;1.92;;;1.42;;
53666;SDS011;39568;51.026;5.468;2023-04-03T13:26:03;2.20;;;1.33;;
53666;SDS011;39568;51.026;5.468;2023-04-03T13:28:32;1.60;;;1.50;;
53666;SDS011;39568;51.026;5.468;2023-04-03T13:31:03;1.92;;;1.73;;
53666;SDS011;39568;51.026;5.468;2023-04-03T13:33:35;6.13;;;2.10;;
53666;SDS011;39568;51.026;5.468;2023-04-03T13:36:04;3.80;;;1.40;;
53666;SDS011;39568;51.026;5.468;2023-04-03T13:38:36;6.53;;;1.73;;
53666;SDS011;39568;51.026;5.468;2023-04-03T13:41:04;3.67;;;1.65;;
53666;SDS011;39568;51.026;5.468;2023-04-03T13:43:48;3.50;;;1.58;;
53666;SDS011;39568;51.026;5.468;2023-04-03T13:46:22;3.05;;;1.63;;
53666;SDS011;39568;51.026;5.468;2023-04-03T13:48:52;3.90;;;2.22;;
53666;SDS011;39568;51.026;5.468;2023-04-03T13:51:24;2.38;;;1.50;;
53666;SDS011;39568;51.026;5.468;2023-04-03T13:53:58;8.23;;;1.83;;
53666;SDS011;39568;51.026;5.468;2023-04-03T13:56:29;5.30;;;1.55;;
53666;SDS011;39568;51.026;5.468;2023-04-03T13:59:04;5.63;;;1.80;;
53666;SDS011;39568;51.026;5.468;2023-04-03T14:01:47;1.85;;;1.52;;
53666;SDS011;39568;51.026;5.468;2023-04-03T14:04:20;5.03;;;1.42;;
53666;SDS011;39568;51.026;5.468;2023-04-03T14:06:48;1.67;;;1.33;;
53666;SDS011;39568;51.026;5.468;2023-04-03T14:09:17;1.90;;;1.38;;
53666;SDS011;39568;51.026;5.468;2023-04-03T14:11:46;1.40;;;1.13;;
53666;SDS011;39568;51.026;5.468;2023-04-03T14:14:16;2.92;;;1.48;;
53666;SDS011;39568;51.026;5.468;2023-04-03T14:16:46;4.00;;;1.63;;
53666;SDS011;39568;51.026;5.468;2023-04-03T14:19:18;5.05;;;1.88;;
53666;SDS011;39568;51.026;5.468;2023-04-03T14:21:47;7.05;;;1.67;;
53666;SDS011;39568;51.026;5.468;2023-04-03T14:24:15;2.03;;;1.38;;
53666;SDS011;39568;51.026;5.468;2023-04-03T14:26:43;4.18;;;1.98;;
53666;SDS011;39568;51.026;5.468;2023-04-03T14:29:11;4.55;;;1.63;;
53666;SDS011;39568;51.026;5.468;2023-04-03T14:31:40;2.13;;;1.38;;
53666;SDS011;39568;51.026;5.468;2023-04-03T14:34:08;4.82;;;1.63;;
53666;SDS011;39568;51.026;5.468;2023-04-03T14:36:36;2.08;;;1.42;;
53666;SDS011;39568;51.026;5.468;2023-04-03T14:39:03;7.45;;;1.52;;
53666;SDS011;39568;51.026;5.468;2023-04-03T14:41:34;3.97;;;1.95;;
53666;SDS011;39568;51.026;5.468;2023-04-03T14:44:03;3.72;;;1.42;;
53666;SDS011;39568;51.026;5.468;2023-04-03T14:46:31;3.53;;;1.45;;
53666;SDS011;39568;51.026;5.468;2023-04-03T14:49:01;4.32;;;1.95;;
53666;SDS011;39568;51.026;5.468;2023-04-03T14:51:34;2.47;;;1.35;;
53666;SDS011;39568;51.026;5.468;2023-04-03T14:54:03;2.65;;;1.25;;
53666;SDS011;39568;51.026;5.468;2023-04-03T14:56:29;2.30;;;1.30;;
53666;SDS011;39568;51.026;5.468;2023-04-03T14:58:57;3.95;;;1.70;;
53666;SDS011;39568;51.026;5.468;2023-04-03T15:01:25;3.05;;;1.63;;
53666;SDS011;39568;51.026;5.468;2023-04-03T15:03:52;2.85;;;1.40;;
53666;SDS011;39568;51.026;5.468;2023-04-03T15:06:21;4.35;;;1.85;;
53666;SDS011;39568;51.026;5.468;2023-04-03T15:08:50;2.10;;;1.65;;
53666;SDS011;39568;51.026;5.468;2023-04-03T15:11:17;2.78;;;1.15;;
53666;SDS011;39568;51.026;5.468;2023-04-03T15:13:45;2.53;;;1.23;;
53666;SDS011;39568;51.026;5.468;2023-04-03T15:16:12;1.65;;;1.45;;
53666;SDS011;39568;51.026;5.468;2023-04-03T15:18:44;2.97;;;1.73;;
53666;SDS011;39568;51.026;5.468;2023-04-03T15:21:13;5.55;;;2.25;;
53666;SDS011;39568;51.026;5.468;2023-04-03T15:23:42;1.83;;;1.20;;
53666;SDS011;39568;51.026;5.468;2023-04-03T15:26:09;2.10;;;1.25;;
53666;SDS011;39568;51.026;5.468;2023-04-03T15:28:40;2.17;;;1.97;;
53666;SDS011;39568;51.026;5.468;2023-04-03T15:31:09;3.88;;;1.63;;